Terminal Aerodrome Forecast
Issued by NWS Grand Forks, ND

Home | Current Version | Previous Version | Graphics & Text | Print | Product List | Glossary On
Versions: 1 2 3 4 5 6 7 8 9 10 11 12 13
000
FTUS43 KFGF 071700
TAFGFK
TAF
KGFK 071739Z 0718/0818 31010KT P6SM VCSH SCT050
     FM072100 31012G20KT P6SM VCTS BKN060CB
     FM080300 31009KT P6SM SCT050=

USA.gov is the U.S. government's official web portal to all federal, state and local government web resources and services.